»·PEaware :: SKW7408 KFMN-KSLC

SKW7408 :: KFMN-KSLC

FLIGHT INFORMATION

Flight Status: Arrived
Operator:
SkyWest Airlines
More flights by this operator :: More flights under this callsign
Pilot: Jack B. (5846)
Aircraft: CANADAIR CL-600 CRJ-200
(CRJ2)
More flights by this aircraft type
Origin: KFMN Four Corners Regl
United States
Destination: KSLC Salt Lake City Intl
United States
More flights between these airports :: More routes between these airports
Route: +PLATA1 CEZ DVC HELPR SPANE7
File this flight plan on PilotEdge
Remarks:
Altitude:
(Current/Filed)
250ft
Speed:
(Current/Filed)
320kts
Departed: 03-Oct-19 01:35 PM
Arrived: 03-Oct-19 02:24 PM
Distance/Time
Traveled:
300nm/0:49
Distance/Time
To Go:
Arrived

Flight Plot

Page will automatically refresh every two minutes.

Flight plan parsing failed; only flown route is shown


Map Options




Map Legend


Flown Route
Filed Route
Departure Airport
Arrival Airport
Navaid (VOR, NDB)
Fix

Horizontal Profiles

Position Reports

Time Latitude Longitude Heading Altitude Ground
Speed
03-Oct-19 13:22 36.739846 -108.228162 88 5497ft 0kts
03-Oct-19 13:23 36.739846 -108.228162 88 5497ft 0kts
03-Oct-19 13:24 36.739846 -108.228162 88 5497ft 0kts
03-Oct-19 13:25 36.739846 -108.228162 88 5497ft 0kts
03-Oct-19 13:26 36.739846 -108.228162 88 5497ft 0kts
03-Oct-19 13:27 36.739846 -108.228162 88 5497ft 0kts
03-Oct-19 13:28 36.739846 -108.228162 88 5497ft 0kts
03-Oct-19 13:29 36.739846 -108.228162 88 5497ft 0kts
03-Oct-19 13:30 36.739846 -108.228162 88 5497ft 0kts
03-Oct-19 13:31 36.740210 -108.227723 357 5500ft 1kts
03-Oct-19 13:32 36.740651 -108.225459 89 5504ft 19kts
03-Oct-19 13:33 36.740793 -108.219308 89 5474ft 25kts
03-Oct-19 13:34 36.741043 -108.217358 52 5452ft 20kts
03-Oct-19 13:35 36.741337 -108.229318 267 5499ft 121kts
03-Oct-19 13:35 36.748702 -108.269044 329 6634ft 166kts
03-Oct-19 13:37 36.813082 -108.259537 9 8473ft 224kts
03-Oct-19 13:37 36.864131 -108.249112 9 10144ft 235kts
03-Oct-19 13:39 36.945386 -108.241811 331 11977ft 271kts
03-Oct-19 13:40 37.013394 -108.289949 331 13560ft 297kts
03-Oct-19 13:40 37.077011 -108.327990 330 14839ft 317kts
03-Oct-19 13:41 37.152760 -108.388980 326 16378ft 333kts
03-Oct-19 13:43 37.247541 -108.458571 326 18140ft 347kts
03-Oct-19 13:43 37.317490 -108.509327 326 19402ft 352kts
03-Oct-19 13:44 37.402775 -108.571213 325 20755ft 358kts
03-Oct-19 13:45 37.487388 -108.638675 320 21957ft 363kts
03-Oct-19 13:46 37.568904 -108.711698 320 23042ft 369kts
03-Oct-19 13:47 37.652579 -108.787596 319 24021ft 375kts
03-Oct-19 13:48 37.737362 -108.865197 319 24917ft 380kts
03-Oct-19 13:49 37.824585 -108.945351 319 25184ft 401kts
03-Oct-19 13:50 37.922018 -109.024196 323 25184ft 429kts
03-Oct-19 13:51 38.023640 -109.108136 321 25185ft 450kts
03-Oct-19 13:52 38.130372 -109.197374 322 25187ft 469kts
03-Oct-19 13:53 38.241036 -109.289506 322 25157ft 485kts
03-Oct-19 13:54 38.355235 -109.384901 322 25111ft 496kts
03-Oct-19 13:55 38.471101 -109.482052 322 25079ft 502kts
03-Oct-19 13:56 38.584755 -109.577276 322 25070ft 505kts
03-Oct-19 13:57 38.701949 -109.675962 322 25070ft 506kts
03-Oct-19 13:58 38.819318 -109.775539 322 25071ft 506kts
03-Oct-19 13:59 38.935721 -109.874700 322 25072ft 506kts
03-Oct-19 14:00 39.052579 -109.974617 321 25074ft 502kts
03-Oct-19 14:01 39.168033 -110.073812 321 25072ft 499kts
03-Oct-19 14:02 39.282637 -110.173009 320 25078ft 498kts
03-Oct-19 14:03 39.397583 -110.272481 320 25084ft 497kts
03-Oct-19 14:04 39.511835 -110.371720 320 25136ft 497kts
03-Oct-19 14:05 39.622665 -110.467245 320 25151ft 496kts
03-Oct-19 14:06 39.736318 -110.566400 314 25141ft 491kts
03-Oct-19 14:07 39.807177 -110.710699 292 25152ft 473kts
03-Oct-19 14:08 39.866517 -110.862618 291 23997ft 465kts
03-Oct-19 14:09 39.923263 -111.010063 292 21968ft 457kts
03-Oct-19 14:10 39.978323 -111.154238 291 19965ft 438kts
03-Oct-19 14:11 40.031593 -111.294053 292 17971ft 429kts
03-Oct-19 14:12 40.083527 -111.430839 292 16016ft 417kts
03-Oct-19 14:13 40.134639 -111.566143 292 15815ft 423kts
03-Oct-19 14:14 40.184872 -111.699698 293 14197ft 396kts
03-Oct-19 14:15 40.232217 -111.826150 293 12589ft 379kts
03-Oct-19 14:16 40.314497 -111.909231 352 11041ft 408kts
03-Oct-19 14:17 40.417129 -111.927368 351 10993ft 319kts
03-Oct-19 14:18 40.498870 -111.940462 351 10266ft 300kts
03-Oct-19 14:19 40.584108 -111.951014 352 8104ft 313kts
03-Oct-19 14:20 40.664894 -111.960376 352 6399ft 268kts
03-Oct-19 14:21 40.729373 -111.967843 352 5239ft 188kts
03-Oct-19 14:22 40.774571 -111.973109 351 4273ft 149kts
03-Oct-19 14:23 40.794994 -111.976180 323 4221ft 24kts
03-Oct-19 14:24 40.794864 -111.977665 170 4221ft 24kts
03-Oct-19 14:25 40.790004 -111.981119 264 4224ft 21kts
03-Oct-19 14:26 40.787453 -111.986810 203 4224ft 0kts

Navigation Log

Ident Type
Flight plan parsing failed, navigation log unavailable